createdAt,value
2022-09-17T00:01:02.074Z,0.00
2022-09-17T00:03:31.004Z,0.00
2022-09-17T00:06:03.745Z,0.00
2022-09-17T00:08:31.746Z,0.00
2022-09-17T00:11:00.021Z,0.20
2022-09-17T00:13:28.133Z,0.00
2022-09-17T00:15:56.723Z,0.30
2022-09-17T00:18:25.008Z,0.00
2022-09-17T00:20:52.898Z,0.00
2022-09-17T00:23:22.201Z,0.00
2022-09-17T00:25:50.291Z,0.00
2022-09-17T00:28:19.219Z,0.00
2022-09-17T00:30:48.270Z,0.00
2022-09-17T00:33:18.097Z,0.80
2022-09-17T00:35:46.033Z,0.00
2022-09-17T00:38:14.046Z,0.00
2022-09-17T00:40:43.444Z,0.00
2022-09-17T00:43:13.411Z,0.00
2022-09-17T00:45:42.130Z,0.00
2022-09-17T00:48:12.438Z,0.00
2022-09-17T00:50:42.057Z,0.32
2022-09-17T00:53:15.863Z,1.80
2022-09-17T00:55:49.972Z,0.20
2022-09-17T00:58:20.208Z,0.00
2022-09-17T01:00:50.696Z,0.00
2022-09-17T01:04:19.727Z,0.00
2022-09-17T01:06:55.383Z,0.20
2022-09-17T01:09:31.020Z,0.00
2022-09-17T01:12:18.343Z,0.10
2022-09-17T01:14:57.164Z,0.00
2022-09-17T01:17:30.954Z,0.00
2022-09-17T01:20:42.147Z,0.50
2022-09-17T01:23:31.056Z,0.00
2022-09-17T01:26:14.458Z,0.00
2022-09-17T01:28:49.339Z,0.70
2022-09-17T01:31:33.899Z,1.00
2022-09-17T01:34:06.421Z,0.30
2022-09-17T01:36:51.185Z,0.00
2022-09-17T01:39:30.711Z,0.00
2022-09-17T01:42:08.932Z,0.00
2022-09-17T01:44:40.879Z,1.00
2022-09-17T01:47:15.715Z,0.30
2022-09-17T01:49:45.985Z,0.10
2022-09-17T01:52:16.431Z,0.00
2022-09-17T01:54:47.467Z,0.00
2022-09-17T01:57:18.703Z,0.00
2022-09-17T01:59:51.302Z,0.70
2022-09-17T02:02:25.363Z,0.00
2022-09-17T02:04:57.057Z,0.00
2022-09-17T02:07:25.967Z,0.10
2022-09-17T02:09:57.870Z,0.20
2022-09-17T02:12:30.269Z,0.30
2022-09-17T02:15:02.463Z,0.00
2022-09-17T02:17:34.588Z,0.22
2022-09-17T02:20:02.796Z,0.05
2022-09-17T02:22:36.278Z,0.30
2022-09-17T02:25:07.672Z,0.00
2022-09-17T02:27:46.202Z,0.00
2022-09-17T02:30:16.250Z,0.00
2022-09-17T02:32:46.581Z,0.20
2022-09-17T02:35:15.358Z,0.70
2022-09-17T02:37:44.622Z,0.00
2022-09-17T02:40:14.573Z,0.80
2022-09-17T02:42:59.649Z,0.00
2022-09-17T02:45:36.979Z,0.00
2022-09-17T02:48:19.019Z,0.00
2022-09-17T02:51:07.459Z,0.90
2022-09-17T02:53:41.161Z,0.20
2022-09-17T02:56:20.512Z,0.60
2022-09-17T02:58:53.839Z,0.00
2022-09-17T03:01:26.825Z,0.03
2022-09-17T03:03:57.103Z,0.00
2022-09-17T03:06:25.022Z,0.00
2022-09-17T03:08:53.491Z,0.00
2022-09-17T03:11:22.550Z,0.00
2022-09-17T03:13:50.958Z,0.00
2022-09-17T03:16:20.105Z,0.00
2022-09-17T03:18:47.959Z,0.40
2022-09-17T03:21:17.669Z,0.10
2022-09-17T03:23:45.640Z,0.00
2022-09-17T03:26:13.750Z,0.00
2022-09-17T03:28:43.604Z,0.00
2022-09-17T03:31:13.563Z,0.00
2022-09-17T03:33:42.378Z,0.00
2022-09-17T03:37:11.503Z,0.00
2022-09-17T03:39:41.077Z,0.00
2022-09-17T03:42:10.171Z,0.00
2022-09-17T03:44:38.525Z,0.00
2022-09-17T03:47:08.980Z,0.20
2022-09-17T03:49:38.091Z,0.00
2022-09-17T03:52:06.078Z,0.00
2022-09-17T03:54:33.931Z,0.25
2022-09-17T03:57:03.425Z,0.00
2022-09-17T03:59:31.712Z,0.00
2022-09-17T04:01:59.582Z,0.00
2022-09-17T04:04:27.287Z,0.10
2022-09-17T04:06:55.932Z,0.00
2022-09-17T04:09:23.501Z,0.00
2022-09-17T04:11:51.222Z,0.00
2022-09-17T04:14:20.497Z,0.00
2022-09-17T04:16:48.372Z,0.00
2022-09-17T04:19:17.576Z,0.00
2022-09-17T04:21:46.155Z,0.00
2022-09-17T04:24:13.817Z,0.00
2022-09-17T04:26:42.286Z,0.00
2022-09-17T04:29:10.579Z,0.70
2022-09-17T04:31:40.221Z,0.98
2022-09-17T04:34:08.761Z,0.00
2022-09-17T04:36:37.218Z,0.00
2022-09-17T04:39:05.003Z,0.00
2022-09-17T04:41:34.456Z,0.00
2022-09-17T04:44:03.226Z,0.00
2022-09-17T04:46:32.014Z,0.00
2022-09-17T04:49:01.102Z,0.00
2022-09-17T04:51:29.529Z,0.00
2022-09-17T04:53:59.363Z,1.00
2022-09-17T04:56:27.277Z,0.10
2022-09-17T04:58:55.784Z,0.00
2022-09-17T05:01:23.749Z,0.00
2022-09-17T05:03:51.600Z,0.60
2022-09-17T05:06:24.681Z,0.00
2022-09-17T05:08:54.606Z,0.00
2022-09-17T05:11:22.343Z,0.00
2022-09-17T05:13:50.806Z,0.00
2022-09-17T05:16:18.894Z,0.20
2022-09-17T05:18:47.748Z,0.00
2022-09-17T05:21:15.688Z,0.30
2022-09-17T05:23:48.513Z,0.30
2022-09-17T05:26:16.604Z,0.00
2022-09-17T05:28:44.663Z,0.00
2022-09-17T05:31:14.698Z,0.00
2022-09-17T05:33:42.495Z,0.15
2022-09-17T05:36:11.798Z,0.10
2022-09-17T05:38:40.295Z,0.00
2022-09-17T05:41:09.566Z,0.00
2022-09-17T05:43:38.693Z,0.00
2022-09-17T05:46:07.545Z,0.00
2022-09-17T05:48:35.791Z,0.00
2022-09-17T05:51:04.512Z,0.00
2022-09-17T05:54:36.585Z,0.10
2022-09-17T05:57:06.397Z,0.00
2022-09-17T05:59:36.133Z,0.00
2022-09-17T06:02:05.217Z,0.00
2022-09-17T06:04:35.099Z,0.00
2022-09-17T06:08:04.267Z,0.00
2022-09-17T06:10:33.140Z,0.20
2022-09-17T06:13:02.716Z,0.67
2022-09-17T06:15:30.796Z,0.00
2022-09-17T06:17:58.723Z,0.00
2022-09-17T06:20:26.614Z,0.10
2022-09-17T06:22:59.102Z,0.00
2022-09-17T06:25:29.434Z,0.00
2022-09-17T06:27:57.677Z,0.20
2022-09-17T06:30:27.019Z,0.10
2022-09-17T06:32:56.771Z,0.00
2022-09-17T06:35:24.734Z,0.00
2022-09-17T06:37:54.145Z,0.00
2022-09-17T06:40:23.871Z,0.17
2022-09-17T06:42:51.980Z,1.60
2022-09-17T06:45:23.339Z,0.80
2022-09-17T06:47:52.466Z,0.15
2022-09-17T06:50:20.246Z,0.00
2022-09-17T06:52:50.947Z,0.00
2022-09-17T06:55:21.559Z,0.10
2022-09-17T06:57:49.544Z,0.00
2022-09-17T07:00:18.011Z,0.80
2022-09-17T07:02:56.316Z,0.00
2022-09-17T07:05:24.774Z,0.00
2022-09-17T07:07:53.775Z,0.00
2022-09-17T07:10:23.500Z,0.00
2022-09-17T07:12:52.205Z,0.00
2022-09-17T07:15:21.399Z,0.00
2022-09-17T07:17:49.265Z,0.00
2022-09-17T07:20:20.495Z,1.30
2022-09-17T07:22:56.885Z,0.00
2022-09-17T07:25:26.497Z,0.00
2022-09-17T07:27:54.689Z,0.00
2022-09-17T07:30:23.535Z,0.00
2022-09-17T07:32:51.931Z,0.30
2022-09-17T07:35:22.063Z,0.00
2022-09-17T07:37:50.818Z,0.00
2022-09-17T07:40:18.720Z,0.00
2022-09-17T07:42:47.497Z,0.00
2022-09-17T07:45:17.434Z,0.20
2022-09-17T07:47:46.147Z,0.00
2022-09-17T07:50:13.988Z,0.00
2022-09-17T07:52:47.684Z,0.00
2022-09-17T07:58:56.781Z,0.00
2022-09-17T08:01:27.239Z,0.00
2022-09-17T08:03:55.602Z,1.05
2022-09-17T08:06:25.979Z,0.00
2022-09-17T08:08:58.227Z,0.00
2022-09-17T08:11:54.538Z,0.00
2022-09-17T08:14:17.859Z,0.00
2022-09-17T08:16:47.254Z,0.70
2022-09-17T08:19:15.752Z,0.53
2022-09-17T08:21:43.541Z,0.60
2022-09-17T08:24:13.774Z,1.77
2022-09-17T08:26:41.742Z,1.35
2022-09-17T08:29:11.450Z,1.23
2022-09-17T08:31:41.756Z,0.95
2022-09-17T08:34:10.593Z,1.20
2022-09-17T08:36:39.967Z,1.63
2022-09-17T08:39:08.234Z,1.98
2022-09-17T08:41:46.630Z,2.03
2022-09-17T08:44:22.785Z,1.42
2022-09-17T08:46:53.115Z,1.00
2022-09-17T08:49:33.799Z,1.15
2022-09-17T08:52:15.473Z,1.00
2022-09-17T08:54:49.043Z,1.10
2022-09-17T08:57:26.961Z,1.60
2022-09-17T08:59:58.446Z,1.23
2022-09-17T09:02:39.457Z,1.15
2022-09-17T09:05:13.358Z,0.82
2022-09-17T09:07:44.454Z,1.60
2022-09-17T09:10:17.931Z,0.70
2022-09-17T09:12:47.304Z,0.80
2022-09-17T09:15:33.376Z,1.30
2022-09-17T09:18:06.441Z,0.85
2022-09-17T09:20:42.862Z,1.53
2022-09-17T09:23:18.818Z,0.63
2022-09-17T09:25:55.274Z,0.90
2022-09-17T09:28:39.760Z,0.80
2022-09-17T09:31:20.717Z,1.87
2022-09-17T09:33:50.309Z,0.70
2022-09-17T09:36:22.211Z,0.73
2022-09-17T09:38:56.688Z,0.77
2022-09-17T09:41:28.572Z,0.55
2022-09-17T09:44:10.617Z,0.82
2022-09-17T09:46:51.672Z,0.80
2022-09-17T09:49:30.578Z,0.77
2022-09-17T09:52:08.887Z,0.70
2022-09-17T09:54:46.771Z,0.88
2022-09-17T09:57:16.547Z,0.60
2022-09-17T09:59:45.694Z,0.50
2022-09-17T10:02:14.717Z,0.33
2022-09-17T10:04:43.614Z,0.60
2022-09-17T10:07:12.416Z,0.55
2022-09-17T10:09:46.824Z,0.45
2022-09-17T10:12:19.673Z,0.60
2022-09-17T10:14:49.110Z,0.57
2022-09-17T10:17:22.316Z,0.80
2022-09-17T10:20:16.481Z,0.70
2022-09-17T10:22:48.869Z,0.80
2022-09-17T10:25:28.694Z,0.43
2022-09-17T10:27:58.778Z,0.30
2022-09-17T10:30:28.370Z,0.68
2022-09-17T10:33:19.459Z,0.90
2022-09-17T10:36:00.038Z,0.63
2022-09-17T10:38:30.797Z,0.68
2022-09-17T10:41:17.678Z,0.60
2022-09-17T10:43:46.105Z,0.50
2022-09-17T10:46:21.896Z,0.88
2022-09-17T10:48:59.750Z,1.20
2022-09-17T10:51:27.946Z,0.45
2022-09-17T10:54:15.099Z,0.90
2022-09-17T10:56:49.092Z,0.60
2022-09-17T10:59:35.125Z,0.30
2022-09-17T11:02:18.870Z,0.55
2022-09-17T11:04:53.193Z,0.30
2022-09-17T11:07:35.466Z,1.05
2022-09-17T11:10:11.061Z,0.77
2022-09-17T11:12:47.222Z,0.80
2022-09-17T11:15:27.625Z,0.22
2022-09-17T11:18:22.812Z,0.70
2022-09-17T11:21:20.113Z,0.60
2022-09-17T11:24:08.185Z,0.43
2022-09-17T11:26:40.580Z,0.38
2022-09-17T11:29:25.584Z,0.57
2022-09-17T11:31:59.547Z,0.68
2022-09-17T11:34:35.029Z,0.30
2022-09-17T11:37:10.321Z,0.57
2022-09-17T11:39:49.554Z,0.20
2022-09-17T11:42:20.386Z,0.63
2022-09-17T11:44:52.700Z,0.38
2022-09-17T11:47:27.310Z,0.40
2022-09-17T11:49:59.932Z,0.50
2022-09-17T11:52:29.948Z,0.57
2022-09-17T11:54:59.887Z,0.45
2022-09-17T11:57:29.263Z,0.40
2022-09-17T12:00:03.160Z,0.40
2022-09-17T12:02:44.079Z,0.38
2022-09-17T12:05:22.190Z,0.37
2022-09-17T12:07:55.632Z,0.50
2022-09-17T12:10:35.765Z,0.30
2022-09-17T12:13:16.383Z,0.50
2022-09-17T12:15:52.346Z,0.70
2022-09-17T12:18:32.939Z,0.40
2022-09-17T12:21:05.305Z,0.60
2022-09-17T12:23:40.181Z,0.80
2022-09-17T12:26:17.955Z,0.50
2022-09-17T12:28:52.125Z,0.30
2022-09-17T12:31:25.791Z,0.50
2022-09-17T12:33:59.917Z,0.40
2022-09-17T12:36:40.352Z,0.10
2022-09-17T12:39:31.736Z,0.15
2022-09-17T12:42:06.762Z,0.20
2022-09-17T12:44:49.390Z,0.30
2022-09-17T12:47:32.664Z,0.10
2022-09-17T12:50:15.769Z,0.20
2022-09-17T12:52:57.595Z,0.00
2022-09-17T12:55:41.914Z,0.10
2022-09-17T12:58:20.452Z,0.00
2022-09-17T13:00:51.777Z,0.30
2022-09-17T13:04:29.690Z,0.30
2022-09-17T13:11:03.107Z,0.40
2022-09-17T13:13:39.075Z,0.70
2022-09-17T13:16:15.555Z,0.40
2022-09-17T13:19:15.014Z,0.30
2022-09-17T13:21:49.820Z,0.50
2022-09-17T13:24:18.604Z,0.85
2022-09-17T13:26:48.732Z,0.55
2022-09-17T13:29:50.114Z,0.30
2022-09-17T13:32:47.795Z,0.20
2022-09-17T13:35:50.758Z,0.40
2022-09-17T13:38:23.957Z,0.28
2022-09-17T13:41:21.265Z,0.38
2022-09-17T13:43:55.874Z,0.20
2022-09-17T13:46:24.473Z,0.32
2022-09-17T13:48:57.787Z,0.10
2022-09-17T13:51:57.755Z,0.40
2022-09-17T13:54:38.648Z,0.25
2022-09-17T13:57:15.490Z,0.30
2022-09-17T14:00:00.139Z,0.50
2022-09-17T14:02:32.253Z,0.60
2022-09-17T14:05:28.303Z,0.43
2022-09-17T14:08:12.924Z,0.60
2022-09-17T14:10:49.789Z,1.10
2022-09-17T14:13:52.447Z,0.65
2022-09-17T14:16:50.281Z,1.05
2022-09-17T14:19:27.001Z,0.70
2022-09-17T14:22:00.736Z,0.73
2022-09-17T14:24:36.940Z,0.90
2022-09-17T14:27:12.254Z,0.70
2022-09-17T14:30:02.825Z,0.57
2022-09-17T14:32:34.412Z,0.90
2022-09-17T14:35:02.799Z,0.30
2022-09-17T14:37:32.712Z,0.50
2022-09-17T14:40:00.741Z,0.50
2022-09-17T14:42:35.564Z,0.57
2022-09-17T14:45:06.223Z,0.75
2022-09-17T14:47:35.506Z,0.80
2022-09-17T14:50:21.586Z,0.70
2022-09-17T14:52:51.374Z,0.88
2022-09-17T14:55:23.975Z,0.98
2022-09-17T14:57:53.884Z,0.80
2022-09-17T15:00:24.570Z,0.70
2022-09-17T15:02:55.825Z,0.10
2022-09-17T15:06:25.128Z,0.70
2022-09-17T15:08:58.735Z,0.50
2022-09-17T15:11:26.347Z,0.65
2022-09-17T15:13:54.172Z,0.50
2022-09-17T15:16:25.550Z,0.85
2022-09-17T15:18:56.236Z,0.95
2022-09-17T15:21:32.312Z,0.53
2022-09-17T15:24:02.177Z,1.10
2022-09-17T15:26:34.734Z,0.80
2022-09-17T15:29:03.303Z,1.00
2022-09-17T15:31:32.966Z,0.57
2022-09-17T15:34:06.522Z,0.70
2022-09-17T15:36:36.107Z,0.70
2022-09-17T15:39:29.766Z,1.10
2022-09-17T15:41:58.633Z,0.68
2022-09-17T15:44:31.675Z,0.80
2022-09-17T15:50:55.914Z,0.63
2022-09-17T15:53:26.860Z,0.90
2022-09-17T15:56:05.074Z,0.57
2022-09-17T15:58:37.100Z,0.70
2022-09-17T16:01:48.030Z,0.57
2022-09-17T16:04:27.581Z,1.10
2022-09-17T16:07:03.396Z,1.00
2022-09-17T16:09:47.087Z,0.98
2022-09-17T16:12:18.365Z,1.95
2022-09-17T16:14:49.372Z,1.08
2022-09-17T16:17:40.054Z,0.95
2022-09-17T16:20:10.999Z,1.30
2022-09-17T16:22:40.475Z,0.60
2022-09-17T16:25:09.104Z,1.10
2022-09-17T16:27:45.905Z,1.23
2022-09-17T16:30:16.823Z,1.50
2022-09-17T16:32:45.508Z,1.30
2022-09-17T16:35:17.248Z,1.50
2022-09-17T16:37:51.319Z,1.52
2022-09-17T16:40:19.648Z,1.13
2022-09-17T16:42:48.319Z,1.20
2022-09-17T16:45:17.215Z,1.73
2022-09-17T16:48:49.658Z,0.90
2022-09-17T16:51:17.806Z,0.90
2022-09-17T16:53:50.096Z,0.80
2022-09-17T16:56:19.793Z,1.38
2022-09-17T16:58:48.793Z,0.85
2022-09-17T17:01:17.265Z,0.73
2022-09-17T17:03:49.133Z,1.10
2022-09-17T17:06:17.494Z,0.88
2022-09-17T17:08:45.538Z,0.70
2022-09-17T17:11:15.148Z,0.88
2022-09-17T17:13:43.190Z,0.90
2022-09-17T17:17:15.524Z,0.80
2022-09-17T17:19:46.068Z,1.13
2022-09-17T17:22:16.045Z,0.50
2022-09-17T17:24:44.821Z,0.52
2022-09-17T17:27:16.053Z,0.60
2022-09-17T17:29:44.214Z,0.80
2022-09-17T17:32:13.004Z,0.47
2022-09-17T17:34:41.255Z,0.80
2022-09-17T17:37:09.768Z,0.68
2022-09-17T17:39:38.496Z,0.80
2022-09-17T17:42:07.032Z,0.60
2022-09-17T17:45:36.322Z,0.82
2022-09-17T17:48:05.711Z,0.70
2022-09-17T17:50:33.907Z,0.98
2022-09-17T17:53:02.492Z,0.90
2022-09-17T17:55:36.184Z,0.90
2022-09-17T17:58:04.941Z,0.80
2022-09-17T18:00:34.683Z,0.73
2022-09-17T18:03:02.682Z,1.13
2022-09-17T18:05:31.922Z,1.13
2022-09-17T18:08:00.350Z,1.05
2022-09-17T18:10:29.499Z,0.75
2022-09-17T18:12:57.523Z,1.20
2022-09-17T18:15:26.947Z,0.73
2022-09-17T18:17:54.795Z,0.90
2022-09-17T18:20:23.136Z,0.80
2022-09-17T18:22:56.763Z,1.30
2022-09-17T18:25:25.480Z,0.80
2022-09-17T18:27:54.403Z,0.80
2022-09-17T18:30:22.792Z,1.30
2022-09-17T18:32:50.436Z,1.25
2022-09-17T18:35:20.514Z,1.07
2022-09-17T18:37:48.677Z,0.95
2022-09-17T18:40:18.470Z,1.25
2022-09-17T18:42:47.005Z,1.15
2022-09-17T18:45:15.998Z,0.90
2022-09-17T18:47:45.494Z,0.90
2022-09-17T18:50:14.326Z,0.80
2022-09-17T18:52:43.120Z,0.88
2022-09-17T18:55:12.050Z,1.17
2022-09-17T18:57:41.723Z,1.20
2022-09-17T19:00:11.667Z,1.27
2022-09-17T19:02:40.299Z,0.90
2022-09-17T19:05:09.095Z,1.35
2022-09-17T19:07:41.390Z,1.02
2022-09-17T19:10:09.947Z,1.10
2022-09-17T19:12:39.490Z,1.10
2022-09-17T19:15:11.624Z,1.40
2022-09-17T19:17:40.462Z,1.47
2022-09-17T19:20:09.334Z,1.10
2022-09-17T19:22:38.643Z,1.05
2022-09-17T19:25:08.395Z,1.15
2022-09-17T19:27:36.236Z,1.02
2022-09-17T19:30:05.827Z,1.27
2022-09-17T19:32:35.659Z,1.20
2022-09-17T19:35:04.198Z,1.55
2022-09-17T19:37:32.401Z,1.35
2022-09-17T19:40:00.963Z,1.20
2022-09-17T19:42:29.139Z,0.93
2022-09-17T19:44:57.892Z,1.42
2022-09-17T19:48:27.194Z,1.10
2022-09-17T19:50:58.360Z,1.25
2022-09-17T19:53:26.821Z,1.42
2022-09-17T19:55:54.834Z,1.20
2022-09-17T19:58:23.195Z,1.20
2022-09-17T20:00:56.433Z,1.10
2022-09-17T20:03:24.742Z,1.00
2022-09-17T20:06:00.844Z,0.90
2022-09-17T20:08:30.514Z,1.25
2022-09-17T20:11:05.599Z,2.25
2022-09-17T20:13:35.612Z,1.10
2022-09-17T20:16:07.846Z,1.48
2022-09-17T20:18:37.618Z,1.20
2022-09-17T20:21:10.238Z,1.48
2022-09-17T20:23:38.946Z,1.30
2022-09-17T20:26:07.134Z,1.40
2022-09-17T20:28:35.855Z,1.42
2022-09-17T20:31:05.556Z,1.00
2022-09-17T20:33:34.182Z,1.73
2022-09-17T20:36:03.641Z,1.17
2022-09-17T20:41:23.552Z,1.30
2022-09-17T20:43:54.124Z,1.15
2022-09-17T20:46:28.640Z,1.35
2022-09-17T20:48:58.421Z,1.20
2022-09-17T20:51:28.770Z,1.17
2022-09-17T20:53:59.539Z,1.08
2022-09-17T20:56:30.393Z,1.05
2022-09-17T20:59:04.003Z,1.30
2022-09-17T21:01:34.764Z,1.00
2022-09-17T21:04:03.713Z,1.45
2022-09-17T21:06:33.164Z,1.35
2022-09-17T21:09:05.888Z,1.30
2022-09-17T21:11:33.720Z,1.17
2022-09-17T21:14:02.073Z,1.55
2022-09-17T21:16:31.543Z,1.50
2022-09-17T21:19:03.510Z,1.60
2022-09-17T21:21:34.321Z,1.23
2022-09-17T21:24:04.770Z,1.02
2022-09-17T21:26:35.597Z,1.05
2022-09-17T21:29:04.027Z,1.37
2022-09-17T21:31:34.265Z,0.80
2022-09-17T21:34:04.407Z,1.30
2022-09-17T21:36:34.792Z,0.90
2022-09-17T21:39:05.922Z,0.90
2022-09-17T21:41:40.085Z,1.43
2022-09-17T21:44:11.845Z,0.93
2022-09-17T21:46:42.298Z,1.40
2022-09-17T21:49:11.104Z,0.80
2022-09-17T21:51:41.305Z,0.95
2022-09-17T21:54:12.332Z,1.10
2022-09-17T21:56:41.281Z,1.30
2022-09-17T21:59:11.053Z,0.88
2022-09-17T22:01:41.418Z,1.15
2022-09-17T22:07:50.345Z,0.95
2022-09-17T22:10:20.324Z,1.02
2022-09-17T22:12:48.191Z,1.00
2022-09-17T22:15:16.301Z,0.90
2022-09-17T22:17:44.661Z,1.13
2022-09-17T22:20:12.737Z,1.08
2022-09-17T22:22:40.469Z,0.95
2022-09-17T22:25:09.825Z,1.50
2022-09-17T22:27:50.288Z,1.15
2022-09-17T22:30:26.476Z,1.27
2022-09-17T22:32:54.575Z,1.30
2022-09-17T22:35:31.809Z,1.10
2022-09-17T22:37:59.757Z,0.75
2022-09-17T22:40:28.078Z,0.98
2022-09-17T22:42:58.421Z,1.27
2022-09-17T22:45:26.841Z,1.10
2022-09-17T22:47:54.905Z,1.70
2022-09-17T22:50:22.742Z,1.10
2022-09-17T22:52:50.723Z,0.80
2022-09-17T22:55:18.624Z,1.02
2022-09-17T22:57:46.476Z,1.13
2022-09-17T23:00:17.570Z,0.90
2022-09-17T23:02:45.200Z,1.00
2022-09-17T23:06:17.379Z,1.00
2022-09-17T23:08:45.363Z,1.50
2022-09-17T23:11:18.996Z,1.20
2022-09-17T23:13:47.178Z,0.82
2022-09-17T23:16:16.896Z,1.00
2022-09-17T23:18:44.920Z,1.17
2022-09-17T23:21:15.182Z,0.77
2022-09-17T23:23:45.438Z,0.80
2022-09-17T23:26:16.672Z,0.73
2022-09-17T23:28:45.233Z,0.85
2022-09-17T23:31:14.661Z,1.30
2022-09-17T23:33:45.250Z,1.08
2022-09-17T23:36:15.416Z,0.80
2022-09-17T23:38:44.672Z,0.73
2022-09-17T23:41:17.254Z,0.93
2022-09-17T23:43:47.790Z,1.20
2022-09-17T23:46:16.767Z,0.85
2022-09-17T23:48:51.301Z,0.90
2022-09-17T23:51:21.021Z,0.90
2022-09-17T23:53:49.732Z,1.00
2022-09-17T23:56:19.856Z,1.05
2022-09-17T23:58:48.340Z,0.90
